createdAt,value
2023-01-19T00:01:41.072Z,98.40
2023-01-19T00:05:08.669Z,120.40
2023-01-19T00:08:36.305Z,197.20
2023-01-19T00:12:03.350Z,147.50
2023-01-19T00:15:30.310Z,122.90
2023-01-19T00:18:57.654Z,101.80
2023-01-19T00:22:24.632Z,96.40
2023-01-19T00:25:51.795Z,96.00
2023-01-19T00:29:20.359Z,96.90
2023-01-19T00:32:47.569Z,67.40
2023-01-19T00:36:14.711Z,92.40
2023-01-19T00:39:41.967Z,105.10
2023-01-19T00:43:09.006Z,104.80
2023-01-19T00:46:36.059Z,115.30
2023-01-19T00:50:03.226Z,106.10
2023-01-19T00:53:32.658Z,90.40
2023-01-19T01:00:26.281Z,79.90
2023-01-19T01:03:54.268Z,75.90
2023-01-19T01:07:21.421Z,72.00
2023-01-19T01:10:48.497Z,80.30
2023-01-19T01:14:16.060Z,70.70
2023-01-19T01:17:48.251Z,75.50
2023-01-19T01:21:15.532Z,82.10
2023-01-19T01:24:42.611Z,63.20
2023-01-19T01:28:11.118Z,75.20
2023-01-19T01:31:38.606Z,70.00
2023-01-19T01:35:06.140Z,70.50
2023-01-19T01:38:33.180Z,64.50
2023-01-19T01:42:00.093Z,68.50
2023-01-19T01:45:35.066Z,70.50
2023-01-19T01:49:05.747Z,74.80
2023-01-19T01:52:37.951Z,75.40
2023-01-19T01:56:08.628Z,70.20
2023-01-19T01:59:39.425Z,71.40
2023-01-19T02:03:06.956Z,85.90
2023-01-19T02:06:34.957Z,81.60
2023-01-19T02:10:20.112Z,77.00
2023-01-19T02:13:48.358Z,87.60
2023-01-19T02:17:15.777Z,98.50
2023-01-19T02:20:46.545Z,85.80
2023-01-19T02:24:14.547Z,77.50
2023-01-19T02:27:41.557Z,89.50
2023-01-19T02:31:08.655Z,94.70
2023-01-19T02:34:36.238Z,75.40
2023-01-19T02:38:05.022Z,75.90
2023-01-19T02:41:39.450Z,81.00
2023-01-19T02:45:09.609Z,87.40
2023-01-19T02:48:36.952Z,82.60
2023-01-19T02:52:04.388Z,76.90
2023-01-19T02:55:33.893Z,59.40
2023-01-19T02:59:07.304Z,66.40
2023-01-19T03:02:46.307Z,62.10
2023-01-19T03:06:25.404Z,63.70
2023-01-19T03:10:00.200Z,57.90
2023-01-19T03:13:35.212Z,61.10
2023-01-19T03:17:07.047Z,68.10
2023-01-19T03:20:35.048Z,68.50
2023-01-19T03:24:08.008Z,67.90
2023-01-19T03:27:40.952Z,74.90
2023-01-19T03:31:13.851Z,89.70
2023-01-19T03:34:43.258Z,80.80
2023-01-19T03:38:15.955Z,63.30
2023-01-19T03:41:44.713Z,58.60
2023-01-19T03:45:13.596Z,63.00
2023-01-19T03:48:42.329Z,62.40
2023-01-19T03:52:09.701Z,57.10
2023-01-19T03:55:38.258Z,53.40
2023-01-19T03:59:06.252Z,37.90
2023-01-19T04:02:33.662Z,51.10
2023-01-19T04:06:00.739Z,56.90
2023-01-19T04:09:27.883Z,45.50
2023-01-19T04:13:00.830Z,57.70
2023-01-19T04:16:29.070Z,56.00
2023-01-19T04:19:55.999Z,59.90
2023-01-19T04:23:22.934Z,49.80
2023-01-19T04:26:51.939Z,54.10
2023-01-19T04:30:19.719Z,56.80
2023-01-19T04:33:46.609Z,58.90
2023-01-19T04:37:14.227Z,57.10
2023-01-19T04:40:41.151Z,57.40
2023-01-19T04:44:08.417Z,56.30
2023-01-19T04:47:35.331Z,54.50
2023-01-19T04:51:02.324Z,55.20
2023-01-19T04:54:29.296Z,54.30
2023-01-19T04:57:56.258Z,52.90
2023-01-19T05:01:23.596Z,57.80
2023-01-19T05:04:51.168Z,102.50
2023-01-19T05:08:18.116Z,83.90
2023-01-19T05:11:45.470Z,76.60
2023-01-19T05:15:14.153Z,66.30
2023-01-19T05:18:41.932Z,43.10
2023-01-19T05:22:09.628Z,59.30
2023-01-19T05:25:38.232Z,56.40
2023-01-19T05:29:05.602Z,53.90
2023-01-19T05:32:32.618Z,77.60
2023-01-19T05:35:59.578Z,61.80
2023-01-19T05:39:26.853Z,54.40
2023-01-19T05:42:54.007Z,60.50
2023-01-19T05:46:21.055Z,60.50
2023-01-19T05:49:47.997Z,68.80
2023-01-19T05:53:15.049Z,241.20
2023-01-19T05:56:42.093Z,185.60
2023-01-19T06:00:11.607Z,97.60
2023-01-19T06:03:41.098Z,69.80
2023-01-19T06:07:09.228Z,56.40
2023-01-19T06:10:36.472Z,44.00
2023-01-19T06:14:03.441Z,43.10
2023-01-19T06:17:30.517Z,44.10
2023-01-19T06:20:59.640Z,44.20
2023-01-19T06:24:26.567Z,46.70
2023-01-19T06:27:53.563Z,41.60
2023-01-19T06:31:20.563Z,49.90
2023-01-19T06:34:47.718Z,46.60
2023-01-19T06:38:15.598Z,44.30
2023-01-19T06:41:43.159Z,44.80
2023-01-19T06:45:12.560Z,40.10
2023-01-19T06:48:39.538Z,48.20
2023-01-19T06:52:06.757Z,44.10
2023-01-19T06:55:35.739Z,50.10
2023-01-19T06:59:03.295Z,68.50
2023-01-19T07:02:30.481Z,169.30
2023-01-19T07:05:58.302Z,133.30
2023-01-19T07:09:25.902Z,108.00
2023-01-19T07:12:53.418Z,109.20
2023-01-19T07:16:20.883Z,61.60
2023-01-19T07:19:48.854Z,54.00
2023-01-19T07:23:16.345Z,64.70
2023-01-19T07:26:43.523Z,63.30
2023-01-19T07:30:12.556Z,64.30
2023-01-19T07:33:39.495Z,44.20
2023-01-19T07:37:06.428Z,65.70
2023-01-19T07:40:33.898Z,63.80
2023-01-19T07:44:00.836Z,60.20
2023-01-19T07:47:27.911Z,52.60
2023-01-19T07:50:54.827Z,50.80
2023-01-19T07:54:21.907Z,45.70
2023-01-19T07:57:52.011Z,49.20
2023-01-19T08:01:19.369Z,51.20
2023-01-19T08:04:49.064Z,47.40
2023-01-19T08:08:16.090Z,89.00
2023-01-19T08:11:42.999Z,65.30
2023-01-19T08:15:11.818Z,54.80
2023-01-19T08:18:38.863Z,51.10
2023-01-19T08:22:05.963Z,46.30
2023-01-19T08:25:37.879Z,43.70
2023-01-19T08:29:06.849Z,38.10
2023-01-19T08:32:33.802Z,40.60
2023-01-19T08:36:00.936Z,39.30
2023-01-19T08:39:28.474Z,35.40
2023-01-19T08:43:00.960Z,39.20
2023-01-19T08:46:28.347Z,40.30
2023-01-19T08:49:55.273Z,40.80
2023-01-19T08:53:23.875Z,42.60
2023-01-19T08:56:51.004Z,56.30
2023-01-19T09:00:19.885Z,40.10
2023-01-19T09:03:47.001Z,40.30
2023-01-19T09:07:14.174Z,40.10
2023-01-19T09:10:45.806Z,38.10
2023-01-19T09:14:13.004Z,39.40
2023-01-19T09:17:40.408Z,38.90
2023-01-19T09:21:08.455Z,43.40
2023-01-19T09:24:36.857Z,45.00
2023-01-19T09:28:04.120Z,48.10
2023-01-19T09:31:31.316Z,49.90
2023-01-19T09:34:58.429Z,40.90
2023-01-19T09:38:25.961Z,36.20
2023-01-19T09:42:03.634Z,36.90
2023-01-19T09:45:39.470Z,42.20
2023-01-19T09:49:13.943Z,41.20
2023-01-19T09:52:49.421Z,39.40
2023-01-19T09:56:19.375Z,112.30
2023-01-19T09:59:51.056Z,65.50
2023-01-19T10:03:20.875Z,53.30
2023-01-19T10:06:48.726Z,50.40
2023-01-19T10:10:23.534Z,56.80
2023-01-19T10:13:54.215Z,51.60
2023-01-19T10:17:32.285Z,49.60
2023-01-19T10:21:05.653Z,44.10
2023-01-19T10:24:39.664Z,44.40
2023-01-19T10:28:06.907Z,46.90
2023-01-19T10:31:37.356Z,48.50
2023-01-19T10:35:21.715Z,49.00
2023-01-19T10:38:49.881Z,52.50
2023-01-19T10:42:18.867Z,52.30
2023-01-19T10:45:52.319Z,49.90
2023-01-19T10:49:31.400Z,53.90
2023-01-19T10:53:01.257Z,55.30
2023-01-19T10:56:31.941Z,62.70
2023-01-19T10:59:59.749Z,55.50
2023-01-19T11:03:29.623Z,54.40
2023-01-19T11:07:14.631Z,49.90
2023-01-19T11:10:41.781Z,48.10
2023-01-19T11:14:14.984Z,48.20
2023-01-19T11:17:48.446Z,44.50
2023-01-19T11:21:17.957Z,43.90
2023-01-19T11:24:46.125Z,45.90
2023-01-19T11:28:21.736Z,46.20
2023-01-19T11:31:49.421Z,45.30
2023-01-19T11:35:37.846Z,49.60
2023-01-19T11:39:24.807Z,50.00
2023-01-19T11:42:52.156Z,48.50
2023-01-19T11:46:20.277Z,46.40
2023-01-19T11:49:52.405Z,45.80
2023-01-19T11:53:24.427Z,54.40
2023-01-19T11:56:53.243Z,48.20
2023-01-19T12:00:29.056Z,44.00
2023-01-19T12:04:02.808Z,48.50
2023-01-19T12:07:44.778Z,45.20
2023-01-19T12:11:30.120Z,42.20
2023-01-19T12:15:03.272Z,48.40
2023-01-19T12:18:35.099Z,50.90
2023-01-19T12:22:03.180Z,48.40
2023-01-19T12:25:37.589Z,56.00
2023-01-19T12:29:12.777Z,51.00
2023-01-19T12:32:39.802Z,56.90
2023-01-19T12:36:11.194Z,57.70
2023-01-19T12:39:50.618Z,52.40
2023-01-19T12:46:47.087Z,54.10
2023-01-19T12:50:23.304Z,56.90
2023-01-19T12:53:56.113Z,58.20
2023-01-19T12:57:28.159Z,62.20
2023-01-19T13:01:16.191Z,69.90
2023-01-19T13:05:03.531Z,72.70
2023-01-19T13:09:01.994Z,68.80
2023-01-19T13:12:29.509Z,74.90
2023-01-19T13:15:58.300Z,82.40
2023-01-19T13:19:36.197Z,72.20
2023-01-19T13:23:24.646Z,73.00
2023-01-19T13:27:03.293Z,80.90
2023-01-19T13:30:35.489Z,76.70
2023-01-19T13:34:05.512Z,92.40
2023-01-19T13:37:39.203Z,89.10
2023-01-19T13:41:07.011Z,82.70
2023-01-19T13:44:39.577Z,92.40
2023-01-19T13:48:09.784Z,77.70
2023-01-19T13:51:36.872Z,107.90
2023-01-19T13:55:05.546Z,92.00
2023-01-19T13:58:33.154Z,97.40
2023-01-19T14:02:14.609Z,77.10
2023-01-19T14:05:44.037Z,70.10
2023-01-19T14:09:20.482Z,82.10
2023-01-19T14:12:59.090Z,82.60
2023-01-19T14:16:26.985Z,77.90
2023-01-19T14:19:55.557Z,77.20
2023-01-19T14:23:40.792Z,84.80
2023-01-19T14:27:19.262Z,77.60
2023-01-19T14:30:57.941Z,81.40
2023-01-19T14:34:37.082Z,74.20
2023-01-19T14:38:04.866Z,70.00
2023-01-19T14:41:39.066Z,70.50
2023-01-19T14:45:17.388Z,73.70
2023-01-19T14:48:51.881Z,66.80
2023-01-19T14:52:27.840Z,68.60
2023-01-19T14:55:59.192Z,65.50
2023-01-19T14:59:26.397Z,90.50
2023-01-19T15:02:53.352Z,102.80
2023-01-19T15:06:23.162Z,128.40
2023-01-19T15:09:51.304Z,110.00
2023-01-19T15:13:21.908Z,103.80
2023-01-19T15:16:50.426Z,112.70
2023-01-19T15:20:22.465Z,140.90
2023-01-19T15:23:49.529Z,165.60
2023-01-19T15:27:16.819Z,196.30
2023-01-19T15:30:43.823Z,174.90
2023-01-19T15:34:14.685Z,148.30
2023-01-19T15:37:41.902Z,121.60
2023-01-19T15:41:14.435Z,122.00
2023-01-19T15:44:41.474Z,114.30
2023-01-19T15:48:10.539Z,122.80
2023-01-19T15:51:38.863Z,115.10
2023-01-19T15:55:07.035Z,120.10
2023-01-19T15:58:34.291Z,114.40
2023-01-19T16:02:01.441Z,117.40
2023-01-19T16:05:42.019Z,110.80
2023-01-19T16:09:12.244Z,88.80
2023-01-19T16:16:13.760Z,119.20
2023-01-19T16:19:40.951Z,128.70
2023-01-19T16:23:15.982Z,128.00
2023-01-19T16:26:43.260Z,129.50
2023-01-19T16:30:14.839Z,137.50
2023-01-19T16:33:41.945Z,137.20
2023-01-19T16:37:08.930Z,171.10
2023-01-19T16:40:36.106Z,205.70
2023-01-19T16:44:03.454Z,210.90
2023-01-19T16:47:31.103Z,183.30
2023-01-19T16:51:06.984Z,186.60
2023-01-19T16:54:34.637Z,156.10
2023-01-19T16:58:01.848Z,150.10
2023-01-19T17:01:30.542Z,162.10
2023-01-19T17:05:00.184Z,175.10
2023-01-19T17:08:27.631Z,174.40
2023-01-19T17:11:58.216Z,197.50
2023-01-19T17:15:25.677Z,204.80
2023-01-19T17:18:53.929Z,185.00
2023-01-19T17:22:21.492Z,174.80
2023-01-19T17:25:55.398Z,171.20
2023-01-19T17:29:22.613Z,241.20
2023-01-19T17:32:50.230Z,227.70
2023-01-19T17:36:21.150Z,185.00
2023-01-19T17:39:48.593Z,162.60
2023-01-19T17:43:15.691Z,169.80
2023-01-19T17:46:42.836Z,185.30
2023-01-19T17:50:11.630Z,220.90
2023-01-19T17:53:41.389Z,195.00
2023-01-19T17:57:08.349Z,187.20
2023-01-19T18:00:35.509Z,170.20
2023-01-19T18:04:02.657Z,156.70
2023-01-19T18:07:30.083Z,146.90
2023-01-19T18:10:58.234Z,137.60
2023-01-19T18:14:25.158Z,127.20
2023-01-19T18:17:52.273Z,132.40
2023-01-19T18:21:21.777Z,124.60
2023-01-19T18:28:16.394Z,110.20
2023-01-19T18:31:43.861Z,106.70
2023-01-19T18:35:12.005Z,104.60
2023-01-19T18:38:39.440Z,114.00
2023-01-19T18:42:06.659Z,119.50
2023-01-19T18:45:33.878Z,119.50
2023-01-19T18:49:01.036Z,120.40
2023-01-19T18:52:28.074Z,132.20
2023-01-19T18:55:57.538Z,205.10
2023-01-19T19:02:50.688Z,334.30
2023-01-19T19:06:20.834Z,320.10
2023-01-19T19:09:48.609Z,227.70
2023-01-19T19:13:17.269Z,177.80
2023-01-19T19:16:44.876Z,134.50
2023-01-19T19:20:14.590Z,129.70
2023-01-19T19:23:42.370Z,108.00
2023-01-19T19:27:13.949Z,112.20
2023-01-19T19:30:41.504Z,117.80
2023-01-19T19:34:09.445Z,107.80
2023-01-19T19:37:37.295Z,123.80
2023-01-19T19:41:09.269Z,114.20
2023-01-19T19:44:36.384Z,109.00
2023-01-19T19:48:04.246Z,109.60
2023-01-19T19:51:31.974Z,106.70
2023-01-19T19:55:00.039Z,110.40
2023-01-19T19:58:30.624Z,119.20
2023-01-19T20:01:59.895Z,108.80
2023-01-19T20:08:56.940Z,124.40
2023-01-19T20:12:25.392Z,137.60
2023-01-19T20:15:54.338Z,142.30
2023-01-19T20:19:22.028Z,134.40
2023-01-19T20:22:50.053Z,125.60
2023-01-19T20:26:20.156Z,153.30
2023-01-19T20:29:51.923Z,161.50
2023-01-19T20:33:19.587Z,138.80
2023-01-19T20:36:49.915Z,135.60
2023-01-19T20:40:18.269Z,160.20
2023-01-19T20:43:46.109Z,227.70
2023-01-19T20:47:13.723Z,212.00
2023-01-19T20:50:40.792Z,219.30
2023-01-19T20:54:08.113Z,215.50
2023-01-19T20:57:35.719Z,185.10
2023-01-19T21:01:10.129Z,176.10
2023-01-19T21:04:37.911Z,161.20
2023-01-19T21:08:06.965Z,151.00
2023-01-19T21:15:01.063Z,108.70
2023-01-19T21:18:29.514Z,98.50
2023-01-19T21:21:57.641Z,94.10
2023-01-19T21:25:25.515Z,88.20
2023-01-19T21:28:53.003Z,85.70
2023-01-19T21:32:21.402Z,85.80
2023-01-19T21:35:55.737Z,94.40
2023-01-19T21:39:23.620Z,101.60
2023-01-19T21:42:51.151Z,98.80
2023-01-19T21:46:21.827Z,119.00
2023-01-19T21:49:49.156Z,112.70
2023-01-19T21:53:16.239Z,102.80
2023-01-19T21:56:44.322Z,99.30
2023-01-19T22:00:13.406Z,101.90
2023-01-19T22:03:40.925Z,91.00
2023-01-19T22:07:08.023Z,91.00
2023-01-19T22:10:38.837Z,94.60
2023-01-19T22:14:06.079Z,97.50
2023-01-19T22:17:33.285Z,86.40
2023-01-19T22:21:10.219Z,95.60
2023-01-19T22:24:37.252Z,92.90
2023-01-19T22:28:04.295Z,81.70
2023-01-19T22:31:32.632Z,81.00
2023-01-19T22:34:59.723Z,85.40
2023-01-19T22:38:27.252Z,91.40
2023-01-19T22:41:54.191Z,92.90
2023-01-19T22:45:21.938Z,96.60
2023-01-19T22:48:49.674Z,93.30
2023-01-19T22:52:16.706Z,111.60
2023-01-19T22:55:43.638Z,111.10
2023-01-19T22:59:10.915Z,109.80
2023-01-19T23:02:37.944Z,110.70
2023-01-19T23:06:08.041Z,115.90
2023-01-19T23:09:35.606Z,104.20
2023-01-19T23:13:02.532Z,102.20
2023-01-19T23:16:29.595Z,104.80
2023-01-19T23:19:56.617Z,98.20
2023-01-19T23:23:23.881Z,105.80
2023-01-19T23:26:52.156Z,102.70
2023-01-19T23:30:20.423Z,100.40
2023-01-19T23:33:47.572Z,89.70
2023-01-19T23:37:15.729Z,96.90
2023-01-19T23:40:42.801Z,100.10
2023-01-19T23:44:09.906Z,100.10
2023-01-19T23:47:37.847Z,90.30
2023-01-19T23:51:10.298Z,96.50
2023-01-19T23:54:37.674Z,86.90
2023-01-19T23:58:04.603Z,90.10
